createdAt,value
2018-09-24T00:00:07.486Z,99935.66
2018-09-24T00:01:10.202Z,99928.97
2018-09-24T00:02:12.817Z,99934.80
2018-09-24T00:03:15.437Z,99934.80
2018-09-24T00:04:18.049Z,99936.47
2018-09-24T00:05:20.668Z,99935.47
2018-09-24T00:06:23.381Z,99937.81
2018-09-24T00:07:25.981Z,99937.81
2018-09-24T00:08:28.853Z,99934.80
2018-09-24T00:09:31.493Z,99945.52
2018-09-24T00:10:34.097Z,99941.01
2018-09-24T00:11:37.097Z,99940.16
2018-09-24T00:12:39.805Z,99945.52
2018-09-24T00:13:42.421Z,99938.82
2018-09-24T00:14:45.037Z,99952.20
2018-09-24T00:15:47.645Z,99931.28
2018-09-24T00:16:50.469Z,99946.85
2018-09-24T00:17:53.081Z,99941.17
2018-09-24T00:18:55.696Z,99944.33
2018-09-24T00:19:58.313Z,99946.52
2018-09-24T00:21:00.933Z,99947.52
2018-09-24T00:22:03.577Z,99950.69
2018-09-24T00:23:06.169Z,99955.03
2018-09-24T00:24:08.787Z,99956.89
2018-09-24T00:25:11.421Z,99963.06
2018-09-24T00:26:14.156Z,99955.55
2018-09-24T00:27:16.897Z,99948.53
2018-09-24T00:28:19.513Z,99957.91
2018-09-24T00:29:22.129Z,99952.55
2018-09-24T00:30:24.737Z,99959.23
2018-09-24T00:31:27.373Z,99959.23
2018-09-24T00:32:30.094Z,99960.58
2018-09-24T00:33:32.791Z,99965.59
2018-09-24T00:34:35.461Z,99972.11
2018-09-24T00:35:38.081Z,99969.94
2018-09-24T00:36:40.682Z,99966.09
2018-09-24T00:37:43.482Z,99973.11
2018-09-24T00:38:46.109Z,99962.92
2018-09-24T00:39:48.742Z,99963.73
2018-09-24T00:40:51.352Z,99973.11
2018-09-24T00:41:53.985Z,99961.58
2018-09-24T00:42:56.685Z,99966.09
2018-09-24T00:43:59.297Z,99960.73
2018-09-24T00:45:01.950Z,99964.26
2018-09-24T00:46:04.585Z,99971.44
2018-09-24T00:47:07.229Z,99967.09
2018-09-24T00:48:09.829Z,99964.94
2018-09-24T00:49:12.425Z,99963.26
2018-09-24T00:50:15.033Z,99974.30
2018-09-24T00:51:17.633Z,99970.77
2018-09-24T00:52:20.257Z,99966.27
2018-09-24T00:53:22.885Z,99976.13
2018-09-24T00:54:25.509Z,99971.29
2018-09-24T00:55:28.165Z,99976.64
2018-09-24T00:56:30.761Z,99978.31
2018-09-24T00:57:33.373Z,99980.99
2018-09-24T00:58:35.981Z,99972.11
2018-09-24T00:59:38.597Z,99973.97
2018-09-24T01:00:41.245Z,99979.32
2018-09-24T01:01:43.857Z,99969.63
2018-09-24T01:02:46.465Z,99981.66
2018-09-24T01:03:49.093Z,99974.45
2018-09-24T01:04:51.717Z,99977.65
2018-09-24T01:05:54.401Z,99980.33
2018-09-24T01:06:57.021Z,99987.02
2018-09-24T01:07:59.701Z,99984.34
2018-09-24T01:09:02.318Z,99989.69
2018-09-24T01:10:05.133Z,99983.00
2018-09-24T01:11:07.765Z,99984.34
2018-09-24T01:12:10.381Z,99987.02
2018-09-24T01:13:13.023Z,99987.84
2018-09-24T01:14:15.664Z,99985.67
2018-09-24T01:15:18.269Z,99992.86
2018-09-24T01:16:20.861Z,99991.52
2018-09-24T01:17:23.465Z,99991.19
2018-09-24T01:18:26.069Z,99993.70
2018-09-24T01:19:28.709Z,100000.06
2018-09-24T01:20:31.337Z,99994.38
2018-09-24T01:21:33.941Z,100003.75
2018-09-24T01:22:36.715Z,99998.88
2018-09-24T01:23:39.321Z,100008.09
2018-09-24T01:24:41.929Z,100012.59
2018-09-24T01:25:44.536Z,100006.09
2018-09-24T01:26:47.169Z,100015.80
2018-09-24T01:27:49.809Z,100001.56
2018-09-24T01:28:52.413Z,100018.14
2018-09-24T01:29:55.017Z,100021.14
2018-09-24T01:30:57.641Z,100022.97
2018-09-24T01:32:00.253Z,100023.48
2018-09-24T01:33:02.857Z,100028.84
2018-09-24T01:34:05.484Z,100034.68
2018-09-24T01:35:08.125Z,100024.83
2018-09-24T01:36:10.770Z,100031.19
2018-09-24T01:37:13.369Z,100037.69
2018-09-24T01:38:15.996Z,100029.84
2018-09-24T01:39:18.602Z,100040.88
2018-09-24T01:40:21.221Z,100036.53
2018-09-24T01:41:23.861Z,100038.20
2018-09-24T01:42:26.497Z,100037.55
2018-09-24T01:43:29.114Z,100047.24
2018-09-24T01:44:31.745Z,100038.36
2018-09-24T01:45:34.350Z,100047.24
2018-09-24T01:46:36.969Z,100054.42
2018-09-24T01:47:39.621Z,100049.06
2018-09-24T01:48:42.249Z,100054.08
2018-09-24T01:49:44.857Z,100057.28
2018-09-24T01:50:47.489Z,100051.92
2018-09-24T01:51:50.194Z,100055.09
2018-09-24T01:52:52.929Z,100054.60
2018-09-24T01:53:55.533Z,100056.77
2018-09-24T01:54:58.137Z,100057.77
2018-09-24T01:56:00.741Z,100058.62
2018-09-24T01:57:03.513Z,100056.09
2018-09-24T01:58:06.129Z,100052.93
2018-09-24T01:59:08.741Z,100061.45
2018-09-24T02:00:11.378Z,100064.97
2018-09-24T02:01:13.988Z,100066.31
2018-09-24T02:02:16.852Z,100072.15
2018-09-24T02:03:19.465Z,100075.16
2018-09-24T02:04:22.086Z,100073.82
2018-09-24T02:05:24.701Z,100066.64
2018-09-24T02:06:27.317Z,100077.35
2018-09-24T02:07:29.913Z,100066.31
2018-09-24T02:08:33.591Z,100071.66
2018-09-24T02:09:36.193Z,100076.50
2018-09-24T02:10:38.789Z,100063.97
2018-09-24T02:11:41.806Z,100073.82
2018-09-24T02:12:44.434Z,100075.68
2018-09-24T02:13:51.674Z,100074.83
2018-09-24T02:14:54.281Z,100080.18
2018-09-24T02:15:56.901Z,100081.03
2018-09-24T02:16:59.561Z,100090.06
2018-09-24T02:18:02.178Z,100086.38
2018-09-24T02:19:04.944Z,100090.40
2018-09-24T02:20:07.597Z,100091.41
2018-09-24T02:21:10.205Z,100096.76
2018-09-24T02:22:13.179Z,100092.41
2018-09-24T02:23:16.409Z,100096.08
2018-09-24T02:24:19.022Z,100095.08
2018-09-24T02:25:21.685Z,100100.92
2018-09-24T02:26:24.322Z,100097.76
2018-09-24T02:27:26.999Z,100093.41
2018-09-24T02:28:29.602Z,100097.91
2018-09-24T02:29:32.246Z,100094.41
2018-09-24T02:30:34.853Z,100100.58
2018-09-24T02:31:39.455Z,100097.57
2018-09-24T02:32:42.213Z,100089.55
2018-09-24T02:33:44.812Z,100103.44
2018-09-24T02:34:48.687Z,100098.58
2018-09-24T02:35:51.321Z,100100.77
2018-09-24T02:36:54.049Z,100099.09
2018-09-24T02:37:56.665Z,100101.40
2018-09-24T02:38:59.273Z,100101.92
2018-09-24T02:40:01.898Z,100104.59
2018-09-24T02:41:04.598Z,100099.73
2018-09-24T02:42:07.217Z,100102.92
2018-09-24T02:43:09.829Z,100106.08
2018-09-24T02:44:12.445Z,100112.77
2018-09-24T02:45:15.118Z,100112.28
2018-09-24T02:46:17.737Z,100120.43
2018-09-24T02:47:20.346Z,100111.58
2018-09-24T02:48:23.039Z,100115.08
2018-09-24T02:49:25.656Z,100121.44
2018-09-24T02:50:36.112Z,100114.75
2018-09-24T02:51:38.767Z,100130.80
2018-09-24T02:52:41.445Z,100123.77
2018-09-24T02:53:44.105Z,100124.77
2018-09-24T02:54:46.710Z,100129.64
2018-09-24T02:55:49.360Z,100136.81
2018-09-24T02:56:52.009Z,100132.47
2018-09-24T02:57:54.609Z,100136.48
2018-09-24T02:58:57.239Z,100121.95
2018-09-24T02:59:59.829Z,100138.82
2018-09-24T03:01:02.433Z,100126.78
2018-09-24T03:02:05.049Z,100142.02
2018-09-24T03:03:10.211Z,100142.50
2018-09-24T03:04:12.872Z,100143.34
2018-09-24T03:05:15.501Z,100141.16
2018-09-24T03:06:18.117Z,100150.19
2018-09-24T03:07:20.973Z,100138.66
2018-09-24T03:08:23.586Z,100148.03
2018-09-24T03:09:26.210Z,100153.86
2018-09-24T03:10:28.808Z,100153.86
2018-09-24T03:11:31.426Z,100160.07
2018-09-24T03:12:34.057Z,100157.54
2018-09-24T03:13:36.926Z,100161.22
2018-09-24T03:14:39.541Z,100167.91
2018-09-24T03:15:42.181Z,100160.73
2018-09-24T03:16:44.818Z,100170.09
2018-09-24T03:17:47.473Z,100166.09
2018-09-24T03:18:56.385Z,100158.55
2018-09-24T03:19:59.017Z,100160.40
2018-09-24T03:21:01.644Z,100168.91
2018-09-24T03:22:04.264Z,100168.42
2018-09-24T03:23:07.322Z,100173.44
2018-09-24T03:24:09.938Z,100176.94
2018-09-24T03:25:18.389Z,100170.42
2018-09-24T03:26:21.216Z,100179.61
2018-09-24T03:27:24.161Z,100171.25
2018-09-24T03:28:26.771Z,100175.26
2018-09-24T03:29:29.405Z,100172.58
2018-09-24T03:30:33.692Z,100176.26
2018-09-24T03:31:36.320Z,100176.11
2018-09-24T03:32:39.808Z,100183.28
2018-09-24T03:33:42.425Z,100184.62
2018-09-24T03:34:45.039Z,100186.81
2018-09-24T03:35:47.651Z,100177.94
2018-09-24T03:36:50.341Z,100185.96
2018-09-24T03:37:53.297Z,100189.97
2018-09-24T03:38:55.885Z,100196.18
2018-09-24T03:39:58.507Z,100182.47
2018-09-24T03:41:01.137Z,100188.64
2018-09-24T03:42:03.881Z,100194.84
2018-09-24T03:43:06.477Z,100196.52
2018-09-24T03:44:09.641Z,100199.67
2018-09-24T03:45:12.270Z,100190.31
2018-09-24T03:46:14.878Z,100206.36
2018-09-24T03:47:17.569Z,100201.87
2018-09-24T03:48:20.185Z,100202.02
2018-09-24T03:49:22.782Z,100205.54
2018-09-24T03:50:25.401Z,100205.02
2018-09-24T03:51:28.241Z,100203.69
2018-09-24T03:52:30.877Z,100205.54
2018-09-24T03:53:33.497Z,100211.38
2018-09-24T03:54:36.144Z,100215.39
2018-09-24T03:55:38.753Z,100210.89
2018-09-24T03:56:41.373Z,100223.75
2018-09-24T03:57:44.063Z,100216.25
2018-09-24T03:58:46.732Z,100222.59
2018-09-24T03:59:49.387Z,100221.59
2018-09-24T04:00:52.355Z,100211.38
2018-09-24T04:01:54.965Z,100216.73
2018-09-24T04:02:57.585Z,100218.06
2018-09-24T04:04:05.618Z,100220.92
2018-09-24T04:05:13.813Z,100215.73
2018-09-24T04:06:21.938Z,100225.44
2018-09-24T04:07:30.161Z,100222.27
2018-09-24T04:08:38.301Z,100232.80
2018-09-24T04:09:46.612Z,100216.58
2018-09-24T04:10:54.780Z,100222.77
2018-09-24T04:12:02.993Z,100234.81
2018-09-24T04:13:11.185Z,100223.63
2018-09-24T04:14:19.329Z,100224.11
2018-09-24T04:15:27.553Z,100232.98
2018-09-24T04:16:35.741Z,100237.83
2018-09-24T04:17:43.913Z,100231.66
2018-09-24T04:18:51.988Z,100236.15
2018-09-24T04:20:00.237Z,100234.81
2018-09-24T04:21:08.479Z,100231.80
2018-09-24T04:22:16.706Z,100244.69
2018-09-24T04:23:24.817Z,100237.15
2018-09-24T04:24:32.917Z,100232.31
2018-09-24T04:25:41.191Z,100244.84
2018-09-24T04:26:49.463Z,100243.50
2018-09-24T04:27:57.708Z,100252.05
2018-09-24T04:29:05.950Z,100243.68
2018-09-24T04:30:14.247Z,100246.84
2018-09-24T04:31:22.473Z,100254.37
2018-09-24T04:32:30.693Z,100252.70
2018-09-24T04:33:38.941Z,100252.19
2018-09-24T04:34:47.135Z,100257.72
2018-09-24T04:35:55.400Z,100265.74
2018-09-24T04:37:03.645Z,100254.52
2018-09-24T04:38:11.887Z,100254.19
2018-09-24T04:39:20.031Z,100263.55
2018-09-24T04:40:28.182Z,100273.43
2018-09-24T04:41:36.363Z,100272.23
2018-09-24T04:42:44.625Z,100269.56
2018-09-24T04:43:52.869Z,100278.78
2018-09-24T04:45:01.031Z,100267.74
2018-09-24T04:46:09.362Z,100273.58
2018-09-24T04:47:17.657Z,100270.08
2018-09-24T04:48:25.900Z,100272.75
2018-09-24T04:49:34.054Z,100270.56
2018-09-24T04:50:42.241Z,100271.90
2018-09-24T04:53:11.318Z,100281.92
2018-09-24T04:54:19.573Z,100277.57
2018-09-24T04:55:27.741Z,100281.09
2018-09-24T04:56:36.080Z,100291.28
2018-09-24T04:57:44.229Z,100289.27
2018-09-24T04:58:52.448Z,100291.95
2018-09-24T05:00:00.621Z,100282.58
2018-09-24T05:01:08.892Z,100296.95
2018-09-24T05:02:17.078Z,100291.61
2018-09-24T05:03:25.216Z,100282.72
2018-09-24T05:04:33.321Z,100289.92
2018-09-24T05:05:41.525Z,100293.60
2018-09-24T05:06:49.702Z,100293.27
2018-09-24T05:07:57.913Z,100295.94
2018-09-24T05:09:06.162Z,100301.29
2018-09-24T05:10:14.406Z,100302.28
2018-09-24T05:11:22.658Z,100302.28
2018-09-24T05:12:30.776Z,100306.30
2018-09-24T05:13:38.941Z,100307.64
2018-09-24T05:14:47.037Z,100313.81
2018-09-24T05:15:55.286Z,100307.64
2018-09-24T05:17:03.584Z,100316.14
2018-09-24T05:18:11.761Z,100317.34
2018-09-24T05:19:19.980Z,100324.37
2018-09-24T05:20:28.197Z,100321.69
2018-09-24T05:21:36.389Z,100330.05
2018-09-24T05:22:44.562Z,100326.72
2018-09-24T05:23:52.761Z,100324.05
2018-09-24T05:25:01.050Z,100321.38
2018-09-24T05:26:09.197Z,100326.58
2018-09-24T05:27:17.414Z,100327.92
2018-09-24T05:28:25.721Z,100341.63
2018-09-24T05:29:34.072Z,100340.78
2018-09-24T05:30:42.329Z,100347.81
2018-09-24T05:31:50.525Z,100337.62
2018-09-24T05:32:58.697Z,100344.31
2018-09-24T05:34:06.939Z,100343.45
2018-09-24T05:35:15.161Z,100346.33
2018-09-24T05:36:23.361Z,100346.47
2018-09-24T05:37:31.629Z,100354.50
2018-09-24T05:38:39.825Z,100348.66
2018-09-24T05:39:47.978Z,100346.47
2018-09-24T05:40:56.217Z,100356.17
2018-09-24T05:42:04.463Z,100361.19
2018-09-24T05:43:12.683Z,100367.73
2018-09-24T05:44:20.929Z,100365.54
2018-09-24T05:45:29.154Z,100368.22
2018-09-24T05:46:37.373Z,100369.55
2018-09-24T05:47:45.579Z,100368.55
2018-09-24T05:48:53.745Z,100367.39
2018-09-24T05:50:02.057Z,100361.52
2018-09-24T05:51:10.577Z,100368.22
2018-09-24T05:52:18.801Z,100375.42
2018-09-24T05:53:26.949Z,100380.77
2018-09-24T05:54:35.089Z,100378.92
2018-09-24T05:55:43.252Z,100368.87
2018-09-24T05:56:51.433Z,100382.59
2018-09-24T05:57:59.553Z,100367.05
2018-09-24T05:59:07.726Z,100381.77
2018-09-24T06:00:15.969Z,100372.41
2018-09-24T06:01:24.218Z,100381.77
2018-09-24T06:02:32.441Z,100383.93
2018-09-24T06:03:40.705Z,100382.25
2018-09-24T06:04:48.857Z,100385.27
2018-09-24T06:05:57.045Z,100381.42
2018-09-24T06:07:05.269Z,100378.75
2018-09-24T06:08:13.441Z,100377.90
2018-09-24T06:09:21.691Z,100379.23
2018-09-24T06:10:29.938Z,100381.91
2018-09-24T06:11:38.112Z,100377.04
2018-09-24T06:12:46.353Z,100388.26
2018-09-24T06:13:54.517Z,100391.27
2018-09-24T06:15:02.969Z,100381.57
2018-09-24T06:16:11.233Z,100382.56
2018-09-24T06:17:19.405Z,100392.27
2018-09-24T06:19:49.541Z,100393.75
2018-09-24T06:20:57.665Z,100393.92
2018-09-24T06:22:05.825Z,100397.42
2018-09-24T06:23:14.065Z,100394.92
2018-09-24T06:24:22.329Z,100400.27
2018-09-24T06:25:30.558Z,100409.29
2018-09-24T06:26:38.797Z,100404.28
2018-09-24T06:27:47.065Z,100408.77
2018-09-24T06:28:55.285Z,100412.45
2018-09-24T06:30:03.509Z,100397.91
2018-09-24T06:31:12.016Z,100420.98
2018-09-24T06:32:20.205Z,100412.96
2018-09-24T06:33:28.478Z,100422.33
2018-09-24T06:34:36.715Z,100419.31
2018-09-24T06:35:44.989Z,100422.81
2018-09-24T06:36:53.136Z,100419.66
2018-09-24T06:38:01.329Z,100423.32
2018-09-24T06:39:10.625Z,100422.47
2018-09-24T06:40:18.793Z,100433.16
2018-09-24T06:41:26.892Z,100422.64
2018-09-24T06:42:35.141Z,100436.02
2018-09-24T06:43:43.361Z,100438.69
2018-09-24T06:44:51.570Z,100442.84
2018-09-24T06:45:59.806Z,100451.72
2018-09-24T06:47:07.945Z,100453.05
2018-09-24T06:48:16.213Z,100436.16
2018-09-24T06:49:24.285Z,100447.36
2018-09-24T06:50:32.556Z,100448.36
2018-09-24T06:51:40.777Z,100456.86
2018-09-24T06:52:49.005Z,100465.41
2018-09-24T06:53:57.197Z,100450.83
2018-09-24T06:55:05.469Z,100445.83
2018-09-24T06:56:13.788Z,100467.39
2018-09-24T06:57:22.057Z,100472.75
2018-09-24T06:58:30.180Z,100470.89
2018-09-24T06:59:38.357Z,100466.05
2018-09-24T07:00:46.617Z,100476.41
2018-09-24T07:01:54.814Z,100478.58
2018-09-24T07:03:03.061Z,100475.08
2018-09-24T07:04:11.283Z,100481.77
2018-09-24T07:05:19.531Z,100486.77
2018-09-24T07:06:27.753Z,100487.25
2018-09-24T07:07:35.917Z,100485.09
2018-09-24T07:08:44.039Z,100483.23
2018-09-24T07:09:52.266Z,100477.41
2018-09-24T07:11:00.505Z,100484.23
2018-09-24T07:12:08.601Z,100502.95
2018-09-24T07:13:16.854Z,100499.45
2018-09-24T07:14:25.118Z,100505.15
2018-09-24T07:15:33.412Z,100501.78
2018-09-24T07:16:41.790Z,100499.11
2018-09-24T07:17:50.057Z,100505.42
2018-09-24T07:18:58.302Z,100516.50
2018-09-24T07:20:06.403Z,100518.80
2018-09-24T07:21:14.646Z,100525.00
2018-09-24T07:22:22.785Z,100509.44
2018-09-24T07:23:31.142Z,100518.31
2018-09-24T07:24:39.390Z,100515.64
2018-09-24T07:25:47.577Z,100514.30
2018-09-24T07:26:55.860Z,100513.10
2018-09-24T07:28:04.065Z,100516.29
2018-09-24T07:29:12.209Z,100511.77
2018-09-24T07:30:20.388Z,100525.14
2018-09-24T07:31:28.606Z,100519.45
2018-09-24T07:32:37.149Z,100518.97
2018-09-24T07:33:45.373Z,100515.95
2018-09-24T07:34:53.523Z,100523.11
2018-09-24T07:36:01.813Z,100503.22
2018-09-24T07:37:10.069Z,100525.78
2018-09-24T07:38:18.257Z,100510.91
2018-09-24T07:39:26.527Z,100525.61
2018-09-24T07:40:34.797Z,100529.11
2018-09-24T07:41:43.028Z,100530.95
2018-09-24T07:42:51.237Z,100519.92
2018-09-24T07:43:59.445Z,100539.98
2018-09-24T07:45:07.554Z,100526.61
2018-09-24T07:46:15.830Z,100533.77
2018-09-24T07:47:24.125Z,100536.95
2018-09-24T07:48:32.374Z,100543.13
2018-09-24T07:49:40.616Z,100546.31
2018-09-24T07:50:48.737Z,100545.97
2018-09-24T07:51:57.000Z,100545.80
2018-09-24T07:53:05.225Z,100563.19
2018-09-24T07:54:13.437Z,100563.19
2018-09-24T07:55:21.619Z,100564.18
2018-09-24T07:56:29.788Z,100553.99
2018-09-24T07:57:37.909Z,100557.16
2018-09-24T07:58:46.153Z,100556.67
2018-09-24T07:59:54.400Z,100565.17
2018-09-24T08:01:02.674Z,100563.84
2018-09-24T08:02:10.889Z,100564.83
2018-09-24T08:03:19.186Z,100565.34
2018-09-24T08:04:27.430Z,100570.69
2018-09-24T08:05:35.701Z,100562.66
2018-09-24T08:06:43.849Z,100568.02
2018-09-24T08:07:52.109Z,100574.83
2018-09-24T08:09:00.273Z,100573.50
2018-09-24T08:10:08.509Z,100584.20
2018-09-24T08:11:16.621Z,100574.14
2018-09-24T08:12:24.849Z,100579.02
2018-09-24T08:13:33.117Z,100584.84
2018-09-24T08:14:41.317Z,100580.48
2018-09-24T08:15:49.637Z,100584.36
2018-09-24T08:16:57.851Z,100584.02
2018-09-24T08:18:06.041Z,100575.48
2018-09-24T08:19:14.263Z,100577.81
2018-09-24T08:20:22.393Z,100597.73
2018-09-24T08:21:30.589Z,100584.36
2018-09-24T08:22:38.794Z,100594.20
2018-09-24T08:23:46.961Z,100609.42
2018-09-24T08:24:55.206Z,100593.85
2018-09-24T08:26:03.475Z,100591.83
2018-09-24T08:27:11.706Z,100595.84
2018-09-24T08:28:19.870Z,100608.73
2018-09-24T08:29:28.141Z,100598.51
2018-09-24T08:30:36.362Z,100600.84
2018-09-24T08:31:44.725Z,100594.02
2018-09-24T08:32:52.917Z,100593.67
2018-09-24T08:34:01.165Z,100603.03
2018-09-24T08:35:09.469Z,100580.64
2018-09-24T08:36:17.756Z,100595.48
2018-09-24T08:37:25.948Z,100601.35
2018-09-24T08:38:34.154Z,100607.17
2018-09-24T08:39:42.297Z,100609.38
2018-09-24T08:40:50.501Z,100612.52
2018-09-24T08:41:58.655Z,100618.73
2018-09-24T08:43:06.909Z,100623.91
2018-09-24T08:44:15.168Z,100623.91
2018-09-24T08:45:23.401Z,100624.91
2018-09-24T08:46:31.569Z,100625.41
2018-09-24T08:47:39.796Z,100627.23
2018-09-24T08:48:47.996Z,100643.27
2018-09-24T08:49:56.145Z,100625.41
2018-09-24T08:51:04.325Z,100643.27
2018-09-24T08:52:12.458Z,100644.61
2018-09-24T08:53:20.639Z,100647.28
2018-09-24T08:54:28.941Z,100652.98
2018-09-24T08:55:37.165Z,100647.28
2018-09-24T08:56:45.424Z,100651.80
2018-09-24T08:57:53.653Z,100659.19
2018-09-24T08:59:01.778Z,100645.30
2018-09-24T09:00:09.945Z,100652.50
2018-09-24T09:01:18.137Z,100657.34
2018-09-24T09:02:26.341Z,100648.48
2018-09-24T09:03:34.561Z,100665.88
2018-09-24T09:04:42.777Z,100664.19
2018-09-24T09:05:51.025Z,100663.67
2018-09-24T09:06:59.244Z,100655.66
2018-09-24T09:08:07.424Z,100655.17
2018-09-24T09:09:16.337Z,100656.51
2018-09-24T09:10:24.485Z,100662.34
2018-09-24T09:11:32.705Z,100658.33
2018-09-24T09:12:40.958Z,100660.87
2018-09-24T09:13:49.145Z,100668.89
2018-09-24T09:14:57.469Z,100662.20
2018-09-24T09:16:05.638Z,100657.69
2018-09-24T09:17:13.884Z,100665.36
2018-09-24T09:18:22.129Z,100662.69
2018-09-24T09:19:30.225Z,100665.70
2018-09-24T09:20:38.477Z,100657.69
2018-09-24T09:21:46.593Z,100667.04
2018-09-24T09:22:54.845Z,100658.20
2018-09-24T09:24:03.148Z,100664.02
2018-09-24T09:25:11.285Z,100667.04
2018-09-24T09:26:19.581Z,100666.22
2018-09-24T09:27:27.769Z,100651.52
2018-09-24T09:28:35.975Z,100668.03
2018-09-24T09:29:44.098Z,100680.06
2018-09-24T09:30:52.237Z,100676.22
2018-09-24T09:32:00.606Z,100673.89
2018-09-24T09:33:08.817Z,100669.88
2018-09-24T09:34:17.020Z,100674.87
2018-09-24T09:35:25.369Z,100677.55
2018-09-24T09:36:33.635Z,100670.87
2018-09-24T09:37:41.954Z,100686.56
2018-09-24T09:38:50.209Z,100696.41
2018-09-24T09:39:58.473Z,100677.69
2018-09-24T09:41:06.622Z,100681.35
2018-09-24T09:42:14.722Z,100687.69
2018-09-24T09:43:22.973Z,100670.78
2018-09-24T09:44:31.105Z,100686.99
2018-09-24T09:45:39.225Z,100696.83
2018-09-24T09:46:47.476Z,100684.45
2018-09-24T09:47:55.617Z,100688.97
2018-09-24T09:49:03.841Z,100695.66
2018-09-24T09:50:12.113Z,100691.30
2018-09-24T09:51:20.329Z,100697.13
2018-09-24T09:52:28.425Z,100706.83
2018-09-24T09:53:36.659Z,100697.98
2018-09-24T09:54:44.797Z,100700.66
2018-09-24T09:55:53.065Z,100708.33
2018-09-24T09:57:01.213Z,100709.66
2018-09-24T09:58:09.481Z,100715.01
2018-09-24T09:59:17.894Z,100705.14
2018-09-24T10:00:25.973Z,100696.30
2018-09-24T10:01:34.193Z,100714.66
2018-09-24T10:02:42.445Z,100714.66
2018-09-24T10:03:50.765Z,100717.34
2018-09-24T10:04:59.009Z,100710.14
2018-09-24T10:06:07.279Z,100717.34
2018-09-24T10:07:15.493Z,100705.30
2018-09-24T10:08:23.679Z,100723.03
2018-09-24T10:09:31.941Z,100718.67
2018-09-24T10:10:40.140Z,100709.31
2018-09-24T10:11:48.345Z,100720.48
2018-09-24T10:12:56.545Z,100712.98
2018-09-24T10:14:04.720Z,100725.01
2018-09-24T10:15:12.918Z,100725.01
2018-09-24T10:16:21.132Z,100726.34
2018-09-24T10:17:29.413Z,100726.69
2018-09-24T10:18:37.677Z,100720.01
2018-09-24T10:19:45.853Z,100724.02
2018-09-24T10:20:54.069Z,100740.54
2018-09-24T10:22:02.197Z,100733.38
2018-09-24T10:23:10.417Z,100736.05
2018-09-24T10:24:18.657Z,100740.41
2018-09-24T10:25:26.877Z,100734.72
2018-09-24T10:26:35.165Z,100735.55
2018-09-24T10:27:43.369Z,100740.06
2018-09-24T10:28:51.670Z,100739.08
2018-09-24T10:29:59.841Z,100745.25
2018-09-24T10:31:08.215Z,100730.19
2018-09-24T10:32:16.354Z,100755.11
2018-09-24T10:33:24.573Z,100756.45
2018-09-24T10:34:32.845Z,100749.26
2018-09-24T10:35:41.093Z,100752.09
2018-09-24T10:36:49.377Z,100763.61
2018-09-24T10:37:57.513Z,100760.46
2018-09-24T10:39:05.655Z,100756.45
2018-09-24T10:40:13.925Z,100756.10
2018-09-24T10:41:22.018Z,100755.11
2018-09-24T10:42:30.294Z,100764.12
2018-09-24T10:43:38.485Z,100755.24
2018-09-24T10:44:46.753Z,100762.44
2018-09-24T10:45:54.998Z,100771.80
2018-09-24T10:47:03.198Z,100778.48
2018-09-24T10:48:11.565Z,100774.47
2018-09-24T10:49:19.737Z,100773.13
2018-09-24T10:50:27.936Z,100775.11
2018-09-24T10:51:36.209Z,100780.80
2018-09-24T10:52:44.401Z,100786.15
2018-09-24T10:53:52.526Z,100786.15
2018-09-24T10:55:00.645Z,100785.29
2018-09-24T10:56:08.868Z,100791.15
2018-09-24T10:57:17.141Z,100781.28
2018-09-24T10:58:25.301Z,100781.28
2018-09-24T10:59:33.644Z,100775.11
2018-09-24T11:00:41.832Z,100782.62
2018-09-24T11:01:50.069Z,100788.47
2018-09-24T11:02:58.296Z,100786.15
2018-09-24T11:04:06.513Z,100788.47
2018-09-24T11:05:14.729Z,100792.83
2018-09-24T11:06:23.001Z,100782.14
2018-09-24T11:07:31.122Z,100789.81
2018-09-24T11:08:39.345Z,100795.16
2018-09-24T11:09:47.567Z,100783.95
2018-09-24T11:10:55.633Z,100801.84
2018-09-24T11:12:03.981Z,100801.84
2018-09-24T11:13:12.173Z,100801.84
2018-09-24T11:14:20.441Z,100801.84
2018-09-24T11:15:28.665Z,100807.66
2018-09-24T11:16:37.018Z,100794.81
2018-09-24T11:17:45.394Z,100811.20
2018-09-24T11:18:53.334Z,100800.63
2018-09-24T11:20:01.549Z,100792.13
2018-09-24T11:22:19.873Z,100820.68
2018-09-24T11:23:28.099Z,100806.97
2018-09-24T11:24:36.269Z,100817.53
2018-09-24T11:25:44.513Z,100816.55
2018-09-24T11:26:52.811Z,100828.92
2018-09-24T11:28:00.965Z,100818.23
2018-09-24T11:29:09.259Z,100819.05
2018-09-24T11:30:17.521Z,100813.36
2018-09-24T11:31:25.669Z,100824.41
2018-09-24T11:32:33.983Z,100824.91
2018-09-24T11:33:42.109Z,100828.92
2018-09-24T11:34:50.431Z,100824.91
2018-09-24T11:35:58.645Z,100834.27
2018-09-24T11:37:06.749Z,100821.38
2018-09-24T11:38:14.917Z,100836.09
2018-09-24T11:39:23.041Z,100829.41
2018-09-24T11:40:31.285Z,100829.91
2018-09-24T11:41:39.557Z,100838.76
2018-09-24T11:42:47.741Z,100840.09
2018-09-24T11:43:55.897Z,100844.62
2018-09-24T11:45:04.145Z,100843.63
2018-09-24T11:46:12.361Z,100850.79
2018-09-24T11:47:20.737Z,100847.64
2018-09-24T11:48:28.882Z,100853.46
2018-09-24T11:49:37.051Z,100851.14
2018-09-24T11:50:45.273Z,100841.94
2018-09-24T11:51:53.445Z,100848.11
2018-09-24T11:53:01.541Z,100848.97
2018-09-24T11:54:09.729Z,100867.53
2018-09-24T11:55:17.905Z,100864.16
2018-09-24T11:56:26.226Z,100857.83
2018-09-24T11:57:34.469Z,100872.05
2018-09-24T11:58:42.693Z,100866.35
2018-09-24T11:59:50.945Z,100862.34
2018-09-24T12:00:59.105Z,100868.04
2018-09-24T12:02:07.313Z,100871.70
2018-09-24T12:03:15.549Z,100865.02
2018-09-24T12:04:23.672Z,100865.50
2018-09-24T12:05:32.017Z,100875.36
2018-09-24T12:06:40.261Z,100884.08
2018-09-24T12:07:48.434Z,100882.75
2018-09-24T12:08:56.628Z,100868.17
2018-09-24T12:10:04.824Z,100885.55
2018-09-24T12:11:13.065Z,100890.06
2018-09-24T12:12:21.213Z,100878.51
2018-09-24T12:13:29.489Z,100879.38
2018-09-24T12:14:37.767Z,100887.39
2018-09-24T12:15:45.930Z,100880.36
2018-09-24T12:16:54.125Z,100888.73
2018-09-24T12:18:02.413Z,100883.03
2018-09-24T12:19:10.677Z,100884.02
2018-09-24T12:20:18.816Z,100889.20
2018-09-24T12:21:27.066Z,100894.20
2018-09-24T12:22:35.226Z,100904.77
2018-09-24T12:23:43.465Z,100896.39
2018-09-24T12:24:51.569Z,100894.29
2018-09-24T12:25:59.715Z,100897.38
2018-09-24T12:27:07.861Z,100900.76
2018-09-24T12:28:16.085Z,100899.42
2018-09-24T12:29:24.283Z,100906.58
2018-09-24T12:30:32.553Z,100904.77
2018-09-24T12:31:40.745Z,100906.10
2018-09-24T12:32:48.964Z,100914.95
2018-09-24T12:33:57.089Z,100914.60
2018-09-24T12:35:05.357Z,100851.38
2018-09-24T12:36:13.607Z,100915.11
2018-09-24T12:37:21.853Z,100917.27
2018-09-24T12:38:30.094Z,100916.80
2018-09-24T12:39:38.385Z,100924.19
2018-09-24T12:40:46.645Z,100919.31
2018-09-24T12:41:54.936Z,100920.17
2018-09-24T12:43:03.182Z,100925.17